createdAt,value
2023-03-04T00:00:09.776Z,3.86
2023-03-04T00:02:37.858Z,3.84
2023-03-04T00:05:06.494Z,3.82
2023-03-04T00:07:35.986Z,3.78
2023-03-04T00:10:04.570Z,3.78
2023-03-04T00:12:32.748Z,3.76
2023-03-04T00:15:00.699Z,3.74
2023-03-04T00:17:30.121Z,3.73
2023-03-04T00:19:58.174Z,3.73
2023-03-04T00:22:26.324Z,3.74
2023-03-04T00:24:55.813Z,3.74
2023-03-04T00:27:24.418Z,3.71
2023-03-04T00:29:52.526Z,3.71
2023-03-04T00:32:20.607Z,3.72
2023-03-04T00:34:48.852Z,3.69
2023-03-04T00:37:16.972Z,3.67
2023-03-04T00:39:45.099Z,3.66
2023-03-04T00:42:14.653Z,3.64
2023-03-04T00:44:42.671Z,3.63
2023-03-04T00:47:10.748Z,3.63
2023-03-04T00:49:38.920Z,3.63
2023-03-04T00:52:07.495Z,3.61
2023-03-04T00:54:35.639Z,3.60
2023-03-04T00:57:03.623Z,3.57
2023-03-04T00:59:33.753Z,3.53
2023-03-04T01:02:01.874Z,3.51
2023-03-04T01:04:30.185Z,3.49
2023-03-04T01:06:58.205Z,3.48
2023-03-04T01:09:26.895Z,3.46
2023-03-04T01:11:55.079Z,3.45
2023-03-04T01:14:23.112Z,3.45
2023-03-04T01:16:52.864Z,3.43
2023-03-04T01:19:21.527Z,3.41
2023-03-04T01:21:49.691Z,3.38
2023-03-04T01:24:17.767Z,3.35
2023-03-04T01:26:45.971Z,3.34
2023-03-04T01:29:14.086Z,3.35
2023-03-04T01:31:42.131Z,3.36
2023-03-04T01:34:11.582Z,3.38
2023-03-04T01:36:39.621Z,3.38
2023-03-04T01:39:07.774Z,3.38
2023-03-04T01:41:35.872Z,3.40
2023-03-04T01:44:04.469Z,3.40
2023-03-04T01:46:33.184Z,3.39
2023-03-04T01:49:01.691Z,3.39
2023-03-04T01:51:31.362Z,3.35
2023-03-04T01:53:59.475Z,3.27
2023-03-04T01:56:31.810Z,3.20
2023-03-04T01:59:18.392Z,3.12
2023-03-04T02:01:48.424Z,3.13
2023-03-04T02:04:17.820Z,3.10
2023-03-04T02:06:49.092Z,3.06
2023-03-04T02:09:18.670Z,2.99
2023-03-04T02:11:49.206Z,2.91
2023-03-04T02:14:18.380Z,2.83
2023-03-04T02:16:47.088Z,2.74
2023-03-04T02:19:20.825Z,2.68
2023-03-04T02:21:50.460Z,2.64
2023-03-04T02:24:25.402Z,2.62
2023-03-04T02:26:54.580Z,2.59
2023-03-04T02:29:23.045Z,2.59
2023-03-04T02:31:52.926Z,2.56
2023-03-04T02:34:23.354Z,2.57
2023-03-04T02:36:53.815Z,2.60
2023-03-04T02:39:26.759Z,2.62
2023-03-04T02:41:57.208Z,2.64
2023-03-04T02:44:27.887Z,2.63
2023-03-04T02:46:56.715Z,2.64
2023-03-04T02:49:26.858Z,2.65
2023-03-04T02:52:00.459Z,2.65
2023-03-04T02:54:28.744Z,2.64
2023-03-04T02:57:00.992Z,2.63
2023-03-04T02:59:29.550Z,2.64
2023-03-04T03:01:57.922Z,2.65
2023-03-04T03:04:27.138Z,2.64
2023-03-04T03:06:55.446Z,2.66
2023-03-04T03:09:23.904Z,2.63
2023-03-04T03:11:51.963Z,2.60
2023-03-04T03:14:21.542Z,2.59
2023-03-04T03:16:49.634Z,2.58
2023-03-04T03:19:17.761Z,2.58
2023-03-04T03:21:45.780Z,2.57
2023-03-04T03:24:13.764Z,2.57
2023-03-04T03:26:41.831Z,2.57
2023-03-04T03:29:11.271Z,2.58
2023-03-04T03:31:40.779Z,2.62
2023-03-04T03:34:08.867Z,2.66
2023-03-04T03:36:37.013Z,2.68
2023-03-04T03:39:05.513Z,2.67
2023-03-04T03:41:33.608Z,2.66
2023-03-04T03:44:01.862Z,2.66
2023-03-04T03:46:29.994Z,2.68
2023-03-04T03:48:59.500Z,2.69
2023-03-04T03:51:27.743Z,2.74
2023-03-04T03:53:55.808Z,2.75
2023-03-04T03:56:23.888Z,2.80
2023-03-04T03:58:52.059Z,2.82
2023-03-04T04:01:20.176Z,2.84
2023-03-04T04:03:48.304Z,2.87
2023-03-04T04:06:17.814Z,2.89
2023-03-04T04:08:45.846Z,2.92
2023-03-04T04:11:14.614Z,2.91
2023-03-04T04:13:42.762Z,2.90
2023-03-04T04:16:11.863Z,2.90
2023-03-04T04:18:40.214Z,2.92
2023-03-04T04:21:08.269Z,2.94
2023-03-04T04:23:37.738Z,2.96
2023-03-04T04:26:06.142Z,2.97
2023-03-04T04:28:34.196Z,3.00
2023-03-04T04:31:02.332Z,3.03
2023-03-04T04:33:30.298Z,3.06
2023-03-04T04:35:58.466Z,3.11
2023-03-04T04:38:26.478Z,3.14
2023-03-04T04:40:58.297Z,3.15
2023-03-04T04:43:26.849Z,3.17
2023-03-04T04:45:54.890Z,3.21
2023-03-04T04:48:22.988Z,3.23
2023-03-04T04:50:56.353Z,3.24
2023-03-04T04:53:24.465Z,3.30
2023-03-04T04:55:52.517Z,3.36
2023-03-04T04:58:21.960Z,3.39
2023-03-04T05:00:50.076Z,3.39
2023-03-04T05:03:18.809Z,3.42
2023-03-04T05:05:47.190Z,3.46
2023-03-04T05:08:15.196Z,3.52
2023-03-04T05:10:43.225Z,3.55
2023-03-04T05:13:11.218Z,3.51
2023-03-04T05:15:40.781Z,3.46
2023-03-04T05:18:08.837Z,3.45
2023-03-04T05:20:37.179Z,3.45
2023-03-04T05:23:05.307Z,3.44
2023-03-04T05:25:33.358Z,3.44
2023-03-04T05:28:02.134Z,3.47
2023-03-04T05:30:30.212Z,3.49
2023-03-04T05:32:59.690Z,3.49
2023-03-04T05:35:29.150Z,3.53
2023-03-04T05:37:57.225Z,3.59
2023-03-04T05:40:25.882Z,3.66
2023-03-04T05:42:53.914Z,3.79
2023-03-04T05:45:22.054Z,3.94
2023-03-04T05:47:50.223Z,4.08
2023-03-04T05:50:20.488Z,4.21
2023-03-04T05:52:48.656Z,4.36
2023-03-04T05:55:17.301Z,4.47
2023-03-04T05:57:45.700Z,4.54
2023-03-04T06:00:15.947Z,4.54
2023-03-04T06:02:45.605Z,4.55
2023-03-04T06:05:14.763Z,4.57
2023-03-04T06:07:45.162Z,4.62
2023-03-04T06:10:14.943Z,4.68
2023-03-04T06:12:42.985Z,4.77
2023-03-04T06:15:11.790Z,4.86
2023-03-04T06:17:42.264Z,4.93
2023-03-04T06:20:12.694Z,4.98
2023-03-04T06:22:40.795Z,5.07
2023-03-04T06:25:10.799Z,5.15
2023-03-04T06:27:38.808Z,5.27
2023-03-04T06:30:08.115Z,5.36
2023-03-04T06:32:36.178Z,5.46
2023-03-04T06:35:04.451Z,5.52
2023-03-04T06:37:32.624Z,5.60
2023-03-04T06:40:00.604Z,5.68
2023-03-04T06:42:30.152Z,5.78
2023-03-04T06:44:58.198Z,5.88
2023-03-04T06:47:26.272Z,5.97
2023-03-04T06:49:54.324Z,6.06
2023-03-04T06:52:22.413Z,6.15
2023-03-04T06:54:50.614Z,6.25
2023-03-04T06:57:18.642Z,6.33
2023-03-04T06:59:48.304Z,6.44
2023-03-04T07:02:16.576Z,6.56
2023-03-04T07:04:44.632Z,6.64
2023-03-04T07:07:14.055Z,6.75
2023-03-04T07:09:42.148Z,6.84
2023-03-04T07:12:10.333Z,6.92
2023-03-04T07:14:38.403Z,7.02
2023-03-04T07:17:07.776Z,7.11
2023-03-04T07:19:35.815Z,7.14
2023-03-04T07:22:03.750Z,7.22
2023-03-04T07:24:31.727Z,7.32
2023-03-04T07:26:59.800Z,7.40
2023-03-04T07:29:27.780Z,7.53
2023-03-04T07:31:55.838Z,7.69
2023-03-04T07:34:25.316Z,7.86
2023-03-04T07:36:53.226Z,8.00
2023-03-04T07:39:21.264Z,8.16
2023-03-04T07:41:49.301Z,8.30
2023-03-04T07:44:17.288Z,8.47
2023-03-04T07:46:45.354Z,8.57
2023-03-04T07:49:13.894Z,8.62
2023-03-04T07:51:43.301Z,8.68
2023-03-04T07:54:12.078Z,8.72
2023-03-04T07:56:40.509Z,8.75
2023-03-04T07:59:08.702Z,8.81
2023-03-04T08:01:38.660Z,8.84
2023-03-04T08:04:08.438Z,8.89
2023-03-04T08:06:36.743Z,8.99
2023-03-04T08:09:07.914Z,9.08
2023-03-04T08:11:37.546Z,9.06
2023-03-04T08:14:05.588Z,9.12
2023-03-04T08:16:33.877Z,9.16
2023-03-04T08:19:03.516Z,9.24
2023-03-04T08:21:32.273Z,9.35
2023-03-04T08:24:02.556Z,9.38
2023-03-04T08:26:35.076Z,9.40
2023-03-04T08:29:04.839Z,9.48
2023-03-04T08:31:33.567Z,9.50
2023-03-04T08:34:01.724Z,9.61
2023-03-04T08:36:29.815Z,9.66
2023-03-04T08:38:57.843Z,9.74
2023-03-04T08:41:27.587Z,9.86
2023-03-04T08:43:57.324Z,10.02
2023-03-04T08:46:25.441Z,10.21
2023-03-04T08:48:53.539Z,10.33
2023-03-04T08:51:21.820Z,10.33
2023-03-04T08:53:50.164Z,10.43
2023-03-04T08:56:18.883Z,10.54
2023-03-04T08:58:47.049Z,10.71
2023-03-04T09:01:17.292Z,10.89
2023-03-04T09:03:45.584Z,11.08
2023-03-04T09:06:16.784Z,11.22
2023-03-04T09:08:45.571Z,11.34
2023-03-04T09:11:14.300Z,11.55
2023-03-04T09:13:42.567Z,11.87
2023-03-04T09:16:12.470Z,12.04
2023-03-04T09:18:43.108Z,12.13
2023-03-04T09:21:12.203Z,12.15
2023-03-04T09:23:40.594Z,12.20
2023-03-04T09:26:17.214Z,12.16
2023-03-04T09:28:45.403Z,12.27
2023-03-04T09:31:14.441Z,12.36
2023-03-04T09:33:44.022Z,12.45
2023-03-04T09:36:13.432Z,12.41
2023-03-04T09:38:42.630Z,12.39
2023-03-04T09:41:15.562Z,12.52
2023-03-04T09:43:45.415Z,12.76
2023-03-04T09:46:17.232Z,12.84
2023-03-04T09:48:50.140Z,12.75
2023-03-04T09:51:24.067Z,12.69
2023-03-04T09:54:09.107Z,12.59
2023-03-04T09:56:39.914Z,12.44
2023-03-04T09:59:18.432Z,12.27
2023-03-04T10:01:50.726Z,12.32
2023-03-04T10:04:32.462Z,12.37
2023-03-04T10:07:01.712Z,12.38
2023-03-04T10:09:34.595Z,12.30
2023-03-04T10:12:06.091Z,12.28
2023-03-04T10:14:39.926Z,12.28
2023-03-04T10:17:14.613Z,12.33
2023-03-04T10:19:56.417Z,12.42
2023-03-04T10:22:33.183Z,12.41
2023-03-04T10:25:14.686Z,12.26
2023-03-04T10:27:43.691Z,12.27
2023-03-04T10:30:22.599Z,12.48
2023-03-04T10:32:50.626Z,12.74
2023-03-04T10:35:24.479Z,13.09
2023-03-04T10:37:53.937Z,13.21
2023-03-04T10:40:25.646Z,13.25
2023-03-04T10:42:55.216Z,13.24
2023-03-04T10:45:26.016Z,13.21
2023-03-04T10:47:55.715Z,13.14
2023-03-04T10:50:27.018Z,13.17
2023-03-04T10:52:56.646Z,13.17
2023-03-04T10:55:27.144Z,13.20
2023-03-04T11:08:42.425Z,13.62
2023-03-04T11:11:32.490Z,13.60
2023-03-04T11:14:05.909Z,13.71
2023-03-04T11:16:34.986Z,13.71
2023-03-04T11:19:07.532Z,13.66
2023-03-04T11:21:40.795Z,13.56
2023-03-04T11:24:28.366Z,13.47
2023-03-04T11:27:04.672Z,13.32
2023-03-04T11:29:36.617Z,13.28
2023-03-04T11:32:10.741Z,13.31
2023-03-04T11:34:43.265Z,13.42
2023-03-04T11:37:16.805Z,13.58
2023-03-04T11:39:51.954Z,13.82
2023-03-04T11:42:29.639Z,14.15
2023-03-04T11:44:57.796Z,14.29
2023-03-04T11:47:53.679Z,14.16
2023-03-04T11:50:30.083Z,13.99
2023-03-04T11:53:30.633Z,13.68
2023-03-04T11:56:11.484Z,13.49
2023-03-04T11:59:11.725Z,13.38
2023-03-04T12:01:48.226Z,13.34
2023-03-04T12:04:35.986Z,13.36
2023-03-04T12:07:17.662Z,13.38
2023-03-04T12:09:58.762Z,13.46
2023-03-04T12:12:51.500Z,13.46
2023-03-04T12:15:26.525Z,13.47
2023-03-04T12:18:04.969Z,13.55
2023-03-04T12:20:49.240Z,13.60
2023-03-04T12:23:30.735Z,13.58
2023-03-04T12:26:08.053Z,13.60
2023-03-04T12:28:52.398Z,13.69
2023-03-04T12:31:35.132Z,13.69
2023-03-04T12:34:36.712Z,13.51
2023-03-04T12:37:36.212Z,13.62
2023-03-04T12:40:23.281Z,13.84
2023-03-04T12:43:03.105Z,14.03
2023-03-04T12:45:42.852Z,14.18
2023-03-04T12:48:19.200Z,14.25
2023-03-04T12:51:00.097Z,14.72
2023-03-04T12:53:34.690Z,15.08
2023-03-04T12:56:07.384Z,15.29
2023-03-04T12:58:38.202Z,15.58
2023-03-04T13:01:16.039Z,15.73
2023-03-04T13:03:54.915Z,16.00
2023-03-04T13:06:33.435Z,15.42
2023-03-04T13:09:06.493Z,14.92
2023-03-04T13:11:47.336Z,15.00
2023-03-04T13:14:32.992Z,15.20
2023-03-04T13:17:04.488Z,16.35
2023-03-04T13:19:47.934Z,16.20
2023-03-04T13:22:30.577Z,15.77
2023-03-04T13:25:00.133Z,15.54
2023-03-04T13:27:49.331Z,16.23
2023-03-04T13:30:42.519Z,16.31
2023-03-04T13:33:45.756Z,15.40
2023-03-04T13:36:43.661Z,14.80
2023-03-04T13:39:42.258Z,14.25
2023-03-04T13:42:42.916Z,13.77
2023-03-04T13:45:34.302Z,13.53
2023-03-04T13:48:04.015Z,13.48
2023-03-04T13:50:41.397Z,13.56
2023-03-04T13:53:45.556Z,15.69
2023-03-04T13:56:33.481Z,17.10
2023-03-04T13:59:23.216Z,18.25
2023-03-04T14:01:57.532Z,17.90
2023-03-04T14:04:30.315Z,18.30
2023-03-04T14:07:00.971Z,18.59
2023-03-04T14:09:31.050Z,18.83
2023-03-04T14:12:02.634Z,18.78
2023-03-04T14:14:35.024Z,18.80
2023-03-04T14:17:06.580Z,19.84
2023-03-04T14:19:39.566Z,21.27
2023-03-04T14:22:23.830Z,22.47
2023-03-04T14:25:03.152Z,23.23
2023-03-04T14:27:33.135Z,23.32
2023-03-04T14:30:02.545Z,23.03
2023-03-04T14:32:31.908Z,23.55
2023-03-04T14:35:03.948Z,23.71
2023-03-04T14:37:44.741Z,23.08
2023-03-04T14:40:23.315Z,22.81
2023-03-04T14:42:58.061Z,22.46
2023-03-04T14:45:26.176Z,22.73
2023-03-04T14:47:57.568Z,22.82
2023-03-04T14:50:25.611Z,22.46
2023-03-04T14:53:15.684Z,22.01
2023-03-04T14:55:58.319Z,21.94
2023-03-04T14:58:28.134Z,21.71
2023-03-04T15:01:16.384Z,21.57
2023-03-04T15:03:47.636Z,21.42
2023-03-04T15:06:20.398Z,21.05
2023-03-04T15:08:56.999Z,20.68
2023-03-04T15:11:27.511Z,20.74
2023-03-04T15:13:57.612Z,20.57
2023-03-04T15:16:28.518Z,20.20
2023-03-04T15:18:59.034Z,20.18
2023-03-04T15:21:35.172Z,20.12
2023-03-04T15:24:06.149Z,19.72
2023-03-04T15:26:36.006Z,18.92
2023-03-04T15:29:05.934Z,18.35
2023-03-04T15:31:34.239Z,18.12
2023-03-04T15:34:02.355Z,18.33
2023-03-04T15:36:30.325Z,18.41
2023-03-04T15:38:59.281Z,17.70
2023-03-04T15:41:29.300Z,16.95
2023-03-04T15:43:57.337Z,16.26
2023-03-04T15:46:25.443Z,15.55
2023-03-04T15:48:53.384Z,14.80
2023-03-04T15:51:23.903Z,14.17
2023-03-04T15:53:57.770Z,13.59
2023-03-04T15:56:29.594Z,13.04
2023-03-04T15:59:00.031Z,12.55
2023-03-04T16:01:28.600Z,12.17
2023-03-04T16:03:56.794Z,11.80
2023-03-04T16:06:28.758Z,11.39
2023-03-04T16:08:56.998Z,11.01
2023-03-04T16:11:27.248Z,10.71
2023-03-04T16:13:56.554Z,10.44
2023-03-04T16:16:24.952Z,10.22
2023-03-04T16:18:53.072Z,10.01
2023-03-04T16:21:23.405Z,9.82
2023-03-04T16:23:53.104Z,9.71
2023-03-04T16:26:22.981Z,9.54
2023-03-04T16:28:51.290Z,9.47
2023-03-04T16:31:22.083Z,9.40
2023-03-04T16:33:50.246Z,9.31
2023-03-04T16:36:22.250Z,9.24
2023-03-04T16:38:51.659Z,9.25
2023-03-04T16:41:23.754Z,9.18
2023-03-04T16:43:51.872Z,9.14
2023-03-04T16:46:21.206Z,9.09
2023-03-04T16:48:49.465Z,9.03
2023-03-04T16:51:21.002Z,8.96
2023-03-04T16:53:51.205Z,8.93
2023-03-04T16:56:20.716Z,8.89
2023-03-04T16:58:49.240Z,8.85
2023-03-04T17:01:19.573Z,8.81
2023-03-04T17:03:49.239Z,8.75
2023-03-04T17:06:17.735Z,8.70
2023-03-04T17:08:45.830Z,8.61
2023-03-04T17:11:17.190Z,8.54
2023-03-04T17:13:45.568Z,8.47
2023-03-04T17:16:15.359Z,8.39
2023-03-04T17:18:44.270Z,8.35
2023-03-04T17:21:16.095Z,8.31
2023-03-04T17:23:44.310Z,8.27
2023-03-04T17:26:13.319Z,8.24
2023-03-04T17:28:41.422Z,8.22
2023-03-04T17:31:13.165Z,8.16
2023-03-04T17:33:41.395Z,8.14
2023-03-04T17:36:12.091Z,8.11
2023-03-04T17:38:41.838Z,8.11
2023-03-04T17:41:13.392Z,8.09
2023-03-04T17:43:44.443Z,8.10
2023-03-04T17:46:15.095Z,8.11
2023-03-04T17:48:43.837Z,8.14
2023-03-04T17:51:12.506Z,8.18
2023-03-04T17:53:42.584Z,8.19
2023-03-04T17:56:12.391Z,8.20
2023-03-04T17:58:41.367Z,8.22
2023-03-04T18:01:19.027Z,8.22
2023-03-04T18:03:47.699Z,8.24
2023-03-04T18:06:17.177Z,8.24
2023-03-04T18:08:47.038Z,8.24
2023-03-04T18:11:15.196Z,8.29
2023-03-04T18:13:44.445Z,8.31
2023-03-04T18:16:18.818Z,8.30
2023-03-04T18:18:46.875Z,8.33
2023-03-04T18:21:14.905Z,8.32
2023-03-04T18:23:42.982Z,8.30
2023-03-04T18:26:13.044Z,8.31
2023-03-04T18:28:41.089Z,8.31
2023-03-04T18:31:10.427Z,8.28
2023-03-04T18:33:39.758Z,8.28
2023-03-04T18:36:10.133Z,8.28
2023-03-04T18:38:38.585Z,8.28
2023-03-04T18:41:08.498Z,8.29
2023-03-04T18:43:38.211Z,8.28
2023-03-04T18:46:09.252Z,8.22
2023-03-04T18:48:40.855Z,8.20
2023-03-04T18:51:08.996Z,8.15
2023-03-04T18:53:37.028Z,8.06
2023-03-04T18:56:11.381Z,7.97
2023-03-04T18:58:44.621Z,7.99
2023-03-04T19:01:15.043Z,8.00
2023-03-04T19:03:44.305Z,7.98
2023-03-04T19:06:12.902Z,7.97
2023-03-04T19:08:41.001Z,8.01
2023-03-04T19:11:12.040Z,8.05
2023-03-04T19:13:48.868Z,8.05
2023-03-04T19:16:17.000Z,8.09
2023-03-04T19:18:45.402Z,8.10
2023-03-04T19:21:13.387Z,8.04
2023-03-04T19:23:41.394Z,7.97
2023-03-04T19:26:09.740Z,7.94
2023-03-04T19:28:37.800Z,7.92
2023-03-04T19:31:08.390Z,7.91
2023-03-04T19:33:37.677Z,7.93
2023-03-04T19:36:07.211Z,7.95
2023-03-04T19:38:35.903Z,7.99
2023-03-04T19:41:10.983Z,7.99
2023-03-04T19:43:39.550Z,8.04
2023-03-04T19:46:10.522Z,8.00
2023-03-04T19:48:40.339Z,7.99
2023-03-04T19:51:15.989Z,7.98
2023-03-04T19:53:44.176Z,7.99
2023-03-04T19:56:12.583Z,7.94
2023-03-04T19:58:41.016Z,7.92
2023-03-04T20:01:27.869Z,7.88
2023-03-04T20:03:56.409Z,7.87
2023-03-04T20:06:26.863Z,7.83
2023-03-04T20:08:57.779Z,7.79
2023-03-04T20:11:29.874Z,7.74
2023-03-04T20:13:58.607Z,7.70
2023-03-04T20:16:28.328Z,7.65
2023-03-04T20:18:57.947Z,7.61
2023-03-04T20:21:26.434Z,7.53
2023-03-04T20:23:54.608Z,7.43
2023-03-04T20:26:22.669Z,7.40
2023-03-04T20:28:53.129Z,7.36
2023-03-04T20:31:23.207Z,7.34
2023-03-04T20:33:53.532Z,7.30
2023-03-04T20:36:23.375Z,7.26
2023-03-04T20:39:01.456Z,7.25
2023-03-04T20:41:30.344Z,7.23
2023-03-04T20:43:58.461Z,7.19
2023-03-04T20:46:29.864Z,7.17
2023-03-04T20:49:01.516Z,7.09
2023-03-04T20:51:30.435Z,7.05
2023-03-04T20:53:58.653Z,7.02
2023-03-04T20:56:27.622Z,6.97
2023-03-04T20:58:57.345Z,6.91
2023-03-04T21:01:27.025Z,6.89
2023-03-04T21:03:55.069Z,6.87
2023-03-04T21:06:25.336Z,6.86
2023-03-04T21:08:53.594Z,6.84
2023-03-04T21:11:23.422Z,6.79
2023-03-04T21:13:57.700Z,6.75
2023-03-04T21:16:29.732Z,6.71
2023-03-04T21:18:57.978Z,6.66
2023-03-04T21:21:29.144Z,6.61
2023-03-04T21:23:58.894Z,6.57
2023-03-04T21:26:27.624Z,6.54
2023-03-04T21:28:55.837Z,6.55
2023-03-04T21:31:25.866Z,6.53
2023-03-04T21:33:55.858Z,6.58
2023-03-04T21:36:24.313Z,6.57
2023-03-04T21:38:54.350Z,6.57
2023-03-04T21:41:25.934Z,6.52
2023-03-04T21:43:54.091Z,6.55
2023-03-04T21:46:23.449Z,6.61
2023-03-04T21:48:51.570Z,6.67
2023-03-04T21:51:19.569Z,6.74
2023-03-04T21:53:47.666Z,6.80
2023-03-04T21:56:17.173Z,6.83
2023-03-04T21:58:45.982Z,6.88
2023-03-04T22:01:15.914Z,6.89
2023-03-04T22:03:44.071Z,6.94
2023-03-04T22:06:13.600Z,6.94
2023-03-04T22:08:42.380Z,6.91
2023-03-04T22:11:12.106Z,6.93
2023-03-04T22:13:42.317Z,6.90
2023-03-04T22:16:11.414Z,6.87
2023-03-04T22:18:40.795Z,6.85
2023-03-04T22:21:11.121Z,6.81
2023-03-04T22:23:39.695Z,6.80
2023-03-04T22:26:12.121Z,6.78
2023-03-04T22:28:41.909Z,6.75
2023-03-04T22:31:18.685Z,6.74
2023-03-04T22:33:47.170Z,6.72
2023-03-04T22:36:15.735Z,6.71
2023-03-04T22:38:44.627Z,6.70
2023-03-04T22:41:16.761Z,6.68
2023-03-04T22:43:46.763Z,6.66
2023-03-04T22:46:17.075Z,6.68
2023-03-04T22:48:45.105Z,6.66
2023-03-04T22:51:13.640Z,6.63
2023-03-04T22:53:43.542Z,6.60
2023-03-04T22:56:12.919Z,6.56
2023-03-04T22:58:41.397Z,6.51
2023-03-04T23:01:11.976Z,6.46
2023-03-04T23:03:41.857Z,6.42
2023-03-04T23:06:12.671Z,6.35
2023-03-04T23:08:43.363Z,6.29
2023-03-04T23:11:13.596Z,6.24
2023-03-04T23:13:42.265Z,6.19
2023-03-04T23:16:13.171Z,6.12
2023-03-04T23:18:43.530Z,6.10
2023-03-04T23:21:14.066Z,6.08
2023-03-04T23:23:42.789Z,6.04
2023-03-04T23:26:16.721Z,6.00
2023-03-04T23:28:45.121Z,5.97
2023-03-04T23:31:15.495Z,5.91
2023-03-04T23:33:43.983Z,5.89
2023-03-04T23:36:14.988Z,5.86
2023-03-04T23:38:44.008Z,5.81
2023-03-04T23:41:13.754Z,5.79
2023-03-04T23:43:42.155Z,5.74
2023-03-04T23:46:11.672Z,5.70
2023-03-04T23:48:43.237Z,5.67
2023-03-04T23:51:11.735Z,5.63
2023-03-04T23:53:39.965Z,5.61
2023-03-04T23:56:09.293Z,5.57
2023-03-04T23:58:37.285Z,5.55
